CheckWX is a tool to help pilots better visualize weather data.  It is not intended as a substitute for an official pre-flight weather briefing.

10:09:53 UTC

KFDY TAF
Findlay Airport
Findlay, Ohio, USA
KFDY 260520Z 2606/2706 24009KT P6SM SCT250

Jun-26@
06:00 UTC

Jun-26 @ 06:00 UTC

Jun-27@
06:00 UTC

Jun-27 @ 06:00 UTC

KFDY 260520Z 2606/2706 24009KT P6SM SCT250
Wind
  • 240° at 9 KTS
Cloud Levels
  • Scattered at 25,000' AGL